Data for 12/23/2006

Time Sea-Level Adjusted Pressure Absolute Pressure Temperature Relative Humidity Dew Point   
(mb) (inHg) (mb) (inHg) (C) (F) (%) (C) (F)
00:05 1025 30.27 854 25.22 -7.2 19.1 72 -11.3 11.6
00:10 1025 30.27 854 25.22 -7.2 19.1 72 -11.4 11.6
00:15 1025 30.27 854 25.22 -7.2 19.1 73 -11.3 11.7
00:20 1025 30.27 854 25.22 -7.1 19.3 70 -11.7 11
00:25 1024 30.24 854 25.22 -7.5 18.5 71 -12 10.5
00:30 1024 30.24 854 25.22 -7.8 17.9 75 -11.5 11.3
00:35 1024 30.24 853 25.19 -7.6 18.3 73 -11.7 11
00:40 1024 30.24 853 25.19 -7.9 17.7 73 -12.1 10.3
00:45 1024 30.24 853 25.19 -7.8 18 73 -11.8 10.7
00:50 1024 30.24 853 25.19 -7.4 18.7 72 -11.6 11.1
00:55 1024 30.24 853 25.19 -7.5 18.6 72 -11.7 11
01:00 1024 30.24 853 25.19 -7.9 17.8 74 -11.8 10.7
01:05 1024 30.24 853 25.19 -7.8 18 75 -11.5 11.3
01:10 1024 30.24 853 25.19 -7.7 18.1 75 -11.3 11.6
01:15 1024 30.24 853 25.19 -7.9 17.9 74 -11.8 10.8
01:20 1024 30.24 853 25.19 -8 17.7 74 -11.8 10.8
01:25 1024 30.24 853 25.19 -8.4 16.8 76 -11.9 10.5
01:30 1024 30.24 853 25.19 -8.6 16.6 76 -12.1 10.3
01:35 1024 30.24 853 25.19 -8.7 16.3 77 -12.1 10.3
01:40 1024 30.24 853 25.19 -8.8 16.1 78 -12 10.4
01:45 1024 30.24 853 25.19 -8.5 16.6 78 -11.8 10.8
01:50 1024 30.24 853 25.19 -8.3 17.2 76 -11.7 10.9
01:55 1024 30.24 853 25.19 -8.2 17.3 76 -11.7 10.9
02:00 1024 30.24 853 25.19 -8.3 17.1 76 -11.9 10.7
02:05 1024 30.24 853 25.19 -8.4 17 75 -12 10.4
02:10 1024 30.24 853 25.19 -8.4 16.9 75 -12.1 10.2
02:15 1024 30.24 853 25.19 -8.4 16.9 75 -12.1 10.2
02:20 1024 30.24 853 25.19 -8.5 16.7 76 -12.1 10.2
02:25 1024 30.24 853 25.19 -8.6 16.6 75 -12.2 10.1
02:30 1024 30.24 853 25.19 -8.4 16.9 74 -12.2 10
02:35 1024 30.24 853 25.19 -8.1 17.5 73 -12 10.3
02:40 1024 30.24 853 25.19 -8.3 17.1 75 -12 10.4
02:45 1024 30.24 853 25.19 -8.4 16.9 75 -12 10.4
02:50 1024 30.24 853 25.19 -8.4 16.8 76 -11.9 10.5
02:55 1024 30.24 853 25.19 -8.5 16.8 76 -11.9 10.5
03:00 1024 30.24 853 25.19 -8.5 16.7 76 -12 10.5
03:05 1024 30.24 853 25.19 -8.8 16.1 77 -12.1 10.1
03:10 1024 30.24 853 25.19 -8.9 15.9 78 -12.1 10.2
03:15 1024 30.24 853 25.19 -8.8 16.2 77 -12.1 10.2
03:20 1024 30.24 853 25.19 -8.9 15.9 78 -12 10.3
03:25 1024 30.24 853 25.19 -8.7 16.3 75 -12.3 9.8
03:30 1024 30.24 853 25.19 -7.9 17.7 74 -11.8 10.7
03:35 1024 30.24 853 25.19 -7.5 18.5 72 -11.8 10.8
03:40 1024 30.24 853 25.19 -7.8 17.9 73 -11.8 10.7
03:45 1024 30.24 853 25.19 -7.9 17.9 72 -12.1 10.3
03:50 1024 30.24 853 25.19 -8.8 16.2 76 -12.2 10
03:55 1023 30.21 853 25.19 -8.5 16.7 76 -12 10.4
04:00 1023 30.21 853 25.19 -7.9 17.8 72 -12.1 10.2
04:05 1023 30.21 853 25.19 -8.5 16.7 75 -12.2 10.1
04:10 1023 30.21 853 25.19 -8.2 17.2 74 -12 10.3
04:15 1023 30.21 853 25.19 -8.2 17.2 74 -12 10.4
04:20 1023 30.21 853 25.19 -8.3 17 74 -12.1 10.2
04:25 1023 30.21 852 25.16 -8.5 16.6 75 -12.2 10
04:30 1023 30.21 852 25.16 -9 15.8 76 -12.4 9.6
04:35 1023 30.21 852 25.16 -9.1 15.6 76 -12.5 9.4
04:40 1023 30.21 852 25.16 -9.4 15 77 -12.7 9.2
04:45 1023 30.21 852 25.16 -9.6 14.8 78 -12.8 8.9
04:50 1023 30.21 852 25.16 -9.9 14.1 80 -12.7 9.1
04:55 1023 30.21 852 25.16 -8.9 16 75 -12.5 9.5
05:00 1023 30.21 852 25.16 -8.5 16.7 74 -12.3 9.8
05:05 1022 30.18 852 25.16 -8.2 17.3 72 -12.3 9.8
05:10 1022 30.18 852 25.16 -8.3 17.1 73 -12.4 9.7
05:15 1022 30.18 852 25.16 -8.8 16.1 75 -12.6 9.4
05:20 1022 30.18 851 25.13 -8.8 16.2 73 -12.7 9.1
05:25 1022 30.18 851 25.13 -9.2 15.4 75 -12.8 8.9
05:30 1022 30.18 851 25.13 -9.9 14.2 80 -12.7 9.2
05:35 1022 30.18 851 25.13 -10.1 13.9 82 -12.6 9.3
05:40 1022 30.18 851 25.13 -9.5 14.8 79 -12.6 9.3
05:45 1022 30.18 851 25.13 -9 15.9 75 -12.7 9.2
05:50 1022 30.18 851 25.13 -9 15.9 72 -13.1 8.4
05:55 1022 30.18 851 25.13 -9.3 15.3 73 -13.2 8.2
06:00 1022 30.18 851 25.13 -9.6 14.8 74 -13.3 8
06:05 1022 30.18 851 25.13 -9.5 14.9 74 -13.3 8
06:10 1022 30.18 851 25.13 -9.1 15.5 72 -13.3 8.1
06:15 1021 30.15 851 25.13 -8.7 16.3 69 -13.4 7.9
06:20 1021 30.15 851 25.13 -8.8 16.2 70 -13.2 8.2
06:25 1021 30.15 851 25.13 -9.6 14.7 75 -13.3 8
06:30 1021 30.15 851 25.13 -9.7 14.6 75 -13.3 8.1
06:35 1021 30.15 850 25.1 -8.8 16.2 74 -12.6 9.4
06:40 1021 30.15 850 25.1 -8 17.5 71 -12.4 9.7
06:45 1021 30.15 850 25.1 -8.5 16.7 72 -12.7 9.1
06:50 1021 30.15 850 25.1 -8.7 16.3 72 -12.9 8.8
06:55 1021 30.15 850 25.1 -8.7 16.3 73 -12.7 9.1
07:00 1021 30.15 850 25.1 -8.6 16.6 70 -13.1 8.5
07:05 1021 30.15 850 25.1 -8.5 16.8 68 -13.4 8
07:10 1021 30.15 850 25.1 -9.7 14.6 74 -13.5 7.8
07:15 1021 30.15 850 25.1 -10.2 13.7 77 -13.4 7.9
07:20 1021 30.15 850 25.1 -9.9 14.2 75 -13.4 7.8
07:25 1021 30.15 850 25.1 -9.7 14.6 74 -13.5 7.7
07:30 1020 30.12 850 25.1 -9.9 14.1 75 -13.5 7.7
07:35 1020 30.12 849 25.07 -10.2 13.7 78 -13.3 8
07:40 1020 30.12 849 25.07 -9.6 14.7 76 -13 8.5
07:45 1020 30.12 849 25.07 -8.9 15.9 75 -12.6 9.2
07:50 1020 30.12 849 25.07 -8.9 16.1 73 -12.8 9
07:55 1020 30.12 849 25.07 -8.2 17.2 68 -13.1 8.4
08:00 1020 30.12 850 25.1 -7.1 19.2 62 -13.3 8.1
08:05 1020 30.12 850 25.1 -6.7 19.9 62 -12.9 8.8
08:10 1021 30.15 850 25.1 -6.6 20 61 -13 8.7
08:15 1021 30.15 850 25.1 -6.7 19.9 63 -12.6 9.4
08:20 1021 30.15 850 25.1 -6.6 20.1 59 -13.3 8
08:25 1021 30.15 850 25.1 -6.1 21 61 -12.4 9.6
08:30 1021 30.15 850 25.1 -6.6 20.2 66 -11.9 10.5
08:35 1021 30.15 850 25.1 -7.2 19 71 -11.6 11.2
08:40 1021 30.15 850 25.1 -8.2 17.3 74 -12.1 10.3
08:45 1021 30.15 850 25.1 -8.6 16.5 76 -12 10.3
08:50 1021 30.15 850 25.1 -8.9 16.1 75 -12.5 9.5
08:55 1021 30.15 850 25.1 -9.1 15.7 77 -12.5 9.5
09:00 1021 30.15 850 25.1 -9.1 15.7 78 -12.3 9.9
09:05 1021 30.15 850 25.1 -9 15.9 78 -12.1 10.1
09:10 1021 30.15 850 25.1 -8.9 16 78 -12 10.3
09:15 1021 30.15 850 25.1 -8.8 16.2 78 -12 10.4
09:20 1021 30.15 850 25.1 -8.7 16.4 77 -11.9 10.5
09:25 1021 30.15 850 25.1 -8.4 16.9 76 -11.9 10.7
09:30 1021 30.15 850 25.1 -8.2 17.3 76 -11.6 11.1
09:35 1021 30.15 850 25.1 -7.7 18.1 74 -11.5 11.2
09:40 1021 30.15 850 25.1 -7.5 18.6 74 -11.3 11.6
09:45 1021 30.15 850 25.1 -7.3 18.8 72 -11.5 11.3
09:50 1021 30.15 850 25.1 -7.2 19 71 -11.6 11.2
09:55 1021 30.15 850 25.1 -6.9 19.6 70 -11.5 11.3
10:00 1021 30.15 850 25.1 -6.7 19.9 70 -11.2 11.8
10:05 1021 30.15 850 25.1 -6.6 20.2 72 -10.8 12.5
10:10 1021 30.15 850 25.1 -6.8 19.7 73 -11 12.2
10:15 1021 30.15 850 25.1 -6.7 20 72 -10.9 12.4
10:20 1021 30.15 850 25.1 -6.5 20.3 72 -10.8 12.6
10:25 1020 30.12 850 25.1 -6.5 20.2 72 -10.7 12.7
10:30 1020 30.12 849 25.07 -6.7 19.9 74 -10.6 12.9
10:35 1020 30.12 849 25.07 -6.8 19.8 75 -10.6 13
10:40 1020 30.12 849 25.07 -6.7 19.9 70 -11.2 11.8
10:45 1019 30.09 848 25.04 -6.5 20.4 69 -11.3 11.7
10:50 1019 30.09 848 25.04 -6.2 20.9 67 -11.3 11.7
10:55 1019 30.09 848 25.04 -5.8 21.5 66 -11.2 11.8
11:00 1019 30.09 848 25.04 -5.5 22.2 63 -11.4 11.5
11:05 1019 30.09 848 25.04 -5 23 60 -11.6 11.2
11:10 1019 30.09 848 25.04 -4.7 23.6 60 -11.3 11.7
11:15 1019 30.09 848 25.04 -4.5 24 58 -11.5 11.3
11:20 1018 30.06 848 25.04 -3.9 25 56 -11.5 11.3
11:25 1018 30.06 848 25.04 -2.7 27.1 52 -11.4 11.5
11:30 1018 30.06 847 25.01 -2.5 27.6 53 -10.8 12.6
11:35 1018 30.06 847 25.01 -2.9 26.9 54 -10.9 12.3
11:40 1018 30.06 847 25.01 -1.9 28.6 47 -11.8 10.7
11:45 1018 30.06 847 25.01 -1 30.1 46 -11.2 11.9
11:50 1017 30.03 847 25.01 -0.4 31.3 44 -11.1 12.1
11:55 1017 30.03 846 24.98 -0.6 30.9 44 -11.6 11.2
12:00 1017 30.03 846 24.98 -0.5 31.1 45 -11 12.2
12:05 1017 30.03 846 24.98 -0.6 31 46 -10.7 12.7
12:10 1017 30.03 846 24.98 -0.7 30.8 47 -10.7 12.8
12:15 1017 30.03 846 24.98 -0.7 30.8 47 -10.6 12.9
12:20 1017 30.03 846 24.98 -0.6 31 45 -11.1 12.1
12:25 1017 30.03 846 24.98 -0.5 31.2 46 -10.7 12.8
12:30 1017 30.03 846 24.98 -0.1 31.8 45 -10.7 12.8
12:35 1017 30.03 846 24.98 0.2 32.4 45 -10.4 13.3
12:40 1017 30.03 846 24.98 0.3 32.6 46 -9.9 14.3
12:45 1017 30.03 846 24.98 0.1 32.3 50 -9.2 15.5
12:50 1017 30.03 846 24.98 0.2 32.3 53 -8.4 16.9
12:55 1017 30.03 846 24.98 -0 32 55 -7.9 17.7
13:00 1017 30.03 846 24.98 -0.4 31.3 57 -7.9 17.8
13:05 1016 30 846 24.98 -0.2 31.6 53 -8.6 16.6
13:10 1016 30 845 24.95 0.9 33.6 49 -8.6 16.5
13:15 1016 30 845 24.95 1.2 34.1 51 -8 17.7
13:20 1016 30 845 24.95 1.2 34.2 48 -8.5 16.6
13:25 1016 30 845 24.95 1.3 34.3 49 -8.3 17.1
13:30 1016 30 845 24.95 1.1 33.9 50 -8.1 17.4
13:35 1016 30 845 24.95 0.8 33.4 51 -8.1 17.4
13:40 1015 29.97 845 24.95 0.6 33.1 51 -8.5 16.6
13:45 1015 29.97 845 24.95 0.5 32.9 49 -9 15.8
13:50 1015 29.97 845 24.95 0.9 33.5 50 -8.3 17.1
13:55 1015 29.97 845 24.95 0.9 33.6 50 -8.3 17.1
14:00 1015 29.97 844 24.92 0.9 33.5 48 -9 15.9
14:05 1015 29.97 844 24.92 1.1 34 47 -9.1 15.6
14:10 1015 29.97 845 24.95 1.7 35.1 48 -8.2 17.2
14:15 1015 29.97 844 24.92 2 35.6 47 -8.1 17.5
14:20 1015 29.97 845 24.95 2.1 35.8 46 -8.3 17.1
14:25 1015 29.97 844 24.92 2.3 36.1 48 -7.7 18.1
14:30 1015 29.97 844 24.92 2.3 36.1 47 -7.8 17.9
14:35 1015 29.97 845 24.95 2.5 36.4 48 -7.5 18.4
14:40 1015 29.97 845 24.95 2.6 36.6 48 -7.4 18.7
14:45 1016 30 845 24.95 2.6 36.6 48 -7.3 18.8
14:50 1015 29.97 845 24.95 2.5 36.6 49 -7 19.4
14:55 1015 29.97 845 24.95 2.5 36.5 50 -6.9 19.6
15:00 1015 29.97 845 24.95 2.5 36.4 50 -7 19.4
15:05 1015 29.97 845 24.95 2.5 36.5 48 -7.4 18.6
15:10 1015 29.97 845 24.95 2.8 37 48 -7.3 18.9
15:15 1015 29.97 845 24.95 2.8 37.1 48 -7 19.3
15:20 1015 29.97 845 24.95 2.7 36.9 47 -7.5 18.5
15:25 1015 29.97 845 24.95 2.8 37.1 48 -7.2 19.1
15:30 1015 29.97 845 24.95 2.9 37.2 45 -7.8 18
15:35 1015 29.97 845 24.95 3.1 37.7 46 -7.4 18.6
15:40 1015 29.97 845 24.95 3.1 37.6 47 -7.2 19
15:45 1015 29.97 845 24.95 3.2 37.8 44 -7.9 17.8
15:50 1015 29.97 845 24.95 3.4 38 44 -7.7 18.1
15:55 1015 29.97 845 24.95 3.3 37.9 46 -7.4 18.7
16:00 1016 30 845 24.95 3.4 38.1 45 -7.4 18.6
16:05 1016 30 845 24.95 3.5 38.3 47 -6.8 19.8
16:10 1016 30 845 24.95 3.4 38.2 49 -6.2 20.8
16:15 1016 30 845 24.95 3.2 37.8 48 -6.9 19.6
16:20 1016 30 845 24.95 3 37.4 49 -6.7 20
16:25 1016 30 845 24.95 2.7 36.9 51 -6.3 20.6
16:30 1016 30 845 24.95 2.4 36.4 51 -6.7 20
16:35 1016 30 845 24.95 2.3 36.1 52 -6.6 20.1
16:40 1016 30 845 24.95 2.2 36 52 -6.6 20
16:45 1016 30 845 24.95 2.1 35.7 53 -6.6 20.2
16:50 1016 30 845 24.95 2 35.6 53 -6.6 20.1
16:55 1016 30 845 24.95 2.1 35.9 52 -6.7 20
17:00 1016 30 845 24.95 2.3 36.2 51 -6.8 19.8
17:05 1016 30 845 24.95 2.1 35.8 51 -7 19.5
17:10 1016 30 845 24.95 2.4 36.3 49 -7.3 18.8
17:15 1016 30 845 24.95 2.4 36.4 50 -6.9 19.5
17:20 1016 30 845 24.95 2.3 36.2 51 -6.9 19.5
17:25 1016 30 845 24.95 2.8 37 48 -7.2 19
17:30 1015 29.97 845 24.95 3 37.3 47 -7.3 18.9
17:35 1015 29.97 845 24.95 3 37.3 48 -6.9 19.6
17:40 1015 29.97 845 24.95 2.8 37.1 50 -6.6 20.1
17:45 1016 30 845 24.95 2.6 36.6 50 -6.8 19.8
17:50 1015 29.97 845 24.95 2.5 36.6 50 -6.7 19.9
17:55 1015 29.97 845 24.95 2.5 36.5 51 -6.7 19.9
18:00 1015 29.97 844 24.92 2.4 36.3 50 -6.9 19.7
18:05 1015 29.97 844 24.92 2.4 36.3 51 -6.8 19.7
18:10 1015 29.97 844 24.92 2.1 35.9 52 -6.8 19.7
18:15 1015 29.97 844 24.92 2.2 35.9 51 -6.9 19.5
18:20 1015 29.97 844 24.92 2.1 35.7 53 -6.6 20.2
18:25 1015 29.97 844 24.92 1.9 35.4 54 -6.5 20.4
18:30 1015 29.97 844 24.92 1.8 35.2 55 -6.3 20.6
18:35 1015 29.97 844 24.92 1.7 35.1 55 -6.4 20.4
18:40 1015 29.97 844 24.92 1.7 35 55 -6.3 20.7
18:45 1015 29.97 844 24.92 1.6 34.9 55 -6.6 20.2
18:50 1015 29.97 844 24.92 1.6 34.9 55 -6.4 20.5
18:55 1015 29.97 844 24.92 1.4 34.6 56 -6.4 20.4
19:00 1015 29.97 844 24.92 1.3 34.3 56 -6.5 20.3
19:05 1015 29.97 844 24.92 1.2 34.1 56 -6.6 20
19:10 1015 29.97 844 24.92 1.1 34 57 -6.5 20.3
19:15 1015 29.97 845 24.95 1 33.8 57 -6.5 20.2
19:20 1015 29.97 845 24.95 0.9 33.6 57 -6.7 20
19:25 1015 29.97 845 24.95 1 33.8 57 -6.6 20.2
19:30 1015 29.97 845 24.95 1.1 33.9 56 -6.8 19.8
19:35 1015 29.97 845 24.95 1.2 34.2 55 -6.8 19.8
19:40 1015 29.97 845 24.95 1.3 34.4 55 -6.8 19.8
19:45 1015 29.97 845 24.95 1.3 34.4 55 -6.7 19.9
19:50 1015 29.97 845 24.95 1.3 34.4 55 -6.8 19.8
19:55 1015 29.97 845 24.95 1.3 34.3 56 -6.6 20.1
20:00 1015 29.97 845 24.95 1.3 34.4 55 -6.7 19.9
20:05 1016 30 845 24.95 1.4 34.5 55 -6.7 19.9
20:10 1016 30 845 24.95 1.4 34.5 56 -6.5 20.2
20:15 1016 30 845 24.95 1.3 34.4 56 -6.5 20.4
20:20 1016 30 845 24.95 1.3 34.4 56 -6.4 20.5
20:25 1016 30 845 24.95 1.2 34.2 57 -6.4 20.5
20:30 1016 30 845 24.95 1.1 34 58 -6.2 20.9
20:35 1016 30 845 24.95 1.1 33.9 58 -6.4 20.5
20:40 1016 30 845 24.95 1.1 34 57 -6.5 20.3
20:45 1016 30 845 24.95 1.2 34.1 57 -6.5 20.4
20:50 1016 30 845 24.95 1.2 34.1 58 -6.3 20.7
20:55 1016 30 845 24.95 1.1 34 58 -6.2 20.8
21:00 1016 30 845 24.95 1 33.8 59 -6.3 20.7
21:05 1016 30 845 24.95 0.9 33.6 60 -6.1 21
21:10 1016 30 845 24.95 0.8 33.4 60 -6.1 21
21:15 1016 30 845 24.95 0.7 33.2 60 -6.3 20.7
21:20 1016 30 845 24.95 0.8 33.4 60 -6.2 20.8
21:25 1016 30 845 24.95 0.7 33.2 60 -6.2 20.8
21:30 1016 30 845 24.95 0.6 33 60 -6.3 20.7
21:35 1016 30 846 24.98 0.5 32.8 61 -6.1 21
21:40 1016 30 846 24.98 0.4 32.8 62 -6.1 21.1
21:45 1017 30.03 846 24.98 0.3 32.6 62 -6.1 21.1
21:50 1017 30.03 846 24.98 0.2 32.4 62 -6.2 20.9
21:55 1017 30.03 846 24.98 0.2 32.3 62 -6.3 20.7
22:00 1017 30.03 846 24.98 0 32.1 64 -6 21.2
22:05 1017 30.03 846 24.98 -0 32 63 -6.2 20.8
22:10 1017 30.03 846 24.98 -0 32 64 -6 21.1
22:15 1017 30.03 846 24.98 -0.1 31.8 66 -5.6 21.9
22:20 1017 30.03 846 24.98 -0.3 31.4 68 -5.5 22.1
22:25 1017 30.03 846 24.98 -0.7 30.8 71 -5.3 22.4
22:30 1017 30.03 846 24.98 -0.9 30.3 75 -4.9 23.3
22:35 1017 30.03 847 25.01 -1.4 29.4 83 -4 24.8
22:40 1017 30.03 847 25.01 -1.9 28.7 85 -4 24.8
22:45 1017 30.03 846 24.98 -2.2 28.1 88 -3.9 24.9
22:50 1017 30.03 846 24.98 -2.2 28.1 89 -3.7 25.3
22:55 1017 30.03 847 25.01 -2 28.4 89 -3.6 25.6
23:00 1018 30.06 847 25.01 -2.2 28.1 91 -3.5 25.7
23:05 1018 30.06 847 25.01 -2.2 28 92 -3.4 25.9
23:10 1018 30.06 847 25.01 -2.1 28.2 92 -3.3 26.1
23:15 1018 30.06 847 25.01 -2.2 28 93 -3.2 26.3
23:20 1018 30.06 847 25.01 -2.5 27.4 96 -3.2 26.3
23:25 1018 30.06 847 25.01 -2.6 27.3 96 -3.1 26.3
23:30 1018 30.06 847 25.01 -2.6 27.3 96 -3.1 26.4
23:35 1018 30.06 847 25.01 -2.5 27.5 96 -3.1 26.5
23:40 1018 30.06 847 25.01 -2.5 27.5 96 -3.1 26.4
23:45 1018 30.06 847 25.01 -2.4 27.6 95 -3.1 26.5
23:50 1018 30.06 847 25.01 -2.4 27.6 95 -3.1 26.5
23:55 1018 30.06 847 25.01 -2.3 27.8 95 -3.1 26.5
24:00 1018 30.06 847 25.01 -2.3 27.8 95 -3.1 26.5